Flight Track Log - Related Links

Times and Time Zones

All times are in EDT time to prevent confusion due to time zone crossing. See the SWA3034 flight status page for this flight to view local times or setup timezone preferences in your user account.

Time Position Orientation Groundspeed Altitude Reporting Facility
EDT Latitude Longitude Course Direction KTS MPH feet Rate Location/Type
Sat 11:00:53 AM 35.0833 -106.5144 53° Northeast 260 299 9,600  Level Albuquerque Center
Sat 11:01:46 AM 35.1017 -106.5806 289° West 271 312 11,900 2,243 Climbing Albuquerque Center
Sat 11:02:48 AM 35.0953 -106.6850 266° West 301 346 13,900 2,371 Climbing Albuquerque Center
Sat 11:03:50 AM 35.1042 -106.8022 275° West 346 398 16,800 2,855 Climbing Albuquerque Center
Sat 11:04:52 AM 35.1331 -106.9386 285° West 354 407 19,800 2,537 Climbing Albuquerque Center
Sat 11:05:53 AM 35.1253 -107.0592 266° West 371 427 22,000 2,098 Climbing Albuquerque Center
Sat 11:06:55 AM 35.1158 -107.1900 265° West 381 438 24,100 1,887 Climbing Albuquerque Center
Sat 11:07:57 AM 35.1058 -107.3250 265° West 396 456 25,900 1,790 Climbing Albuquerque Center
Sat 11:08:59 AM 35.0986 -107.4608 266° West 400 460 27,800 2,226 Climbing Albuquerque Center
Sat 11:10:01 AM 35.0906 -107.6217 267° West 398 458 30,500 2,468 Climbing Albuquerque Center
Sat 11:11:03 AM 35.1014 -107.7453 276° West 375 432 32,900 1,707 Climbing Albuquerque Center
Sat 11:12:04 AM 35.1136 -107.8717 277° West 365 420 34,000 537 Climbing Albuquerque Center
Sat 11:13:06 AM 35.1028 -107.9978 264° West 386 444 34,000  Level Albuquerque Center
Sat 11:14:08 AM 35.0919 -108.1481 265° West 395 455 34,000  Level Albuquerque Center
Sat 11:15:10 AM 35.0819 -108.2758 265° West 396 456 34,000  Level Albuquerque Center
Sat 11:16:12 AM 35.0719 -108.4256 265° West 395 455 34,000  Level Albuquerque Center
Sat 11:17:14 AM 35.0619 -108.5553 265° West 398 458 34,000  Level Albuquerque Center
Sat 11:18:16 AM 35.0514 -108.7039 265° West 395 455 34,000  Level Albuquerque Center
Sat 11:19:18 AM 35.0419 -108.8333 265° West 398 458 34,000  Level Albuquerque Center
Sat 11:20:19 AM 35.0319 -108.9608 265° West 396 456 34,000  Level Albuquerque Center
Sat 11:21:21 AM 35.0197 -109.1106 264° West 396 456 34,000  Level Albuquerque Center
Sat 11:22:23 AM 35.0106 -109.2389 265° West 396 456 34,000  Level Albuquerque Center
Sat 11:23:25 AM 34.9981 -109.3889 264° West 397 457 34,000  Level Albuquerque Center
Sat 11:24:27 AM 34.9864 -109.5161 264° West 395 455 34,000  Level Albuquerque Center
Sat 11:25:29 AM 34.9731 -109.6658 264° West 395 455 34,000  Level Albuquerque Center
Sat 11:26:31 AM 34.9639 -109.7956 265° West 399 459 34,000  Level Albuquerque Center
Sat 11:27:33 AM 34.9519 -109.9239 264° West 399 459 34,000  Level Albuquerque Center
Sat 11:28:34 AM 34.9392 -110.0750 264° West 400 460 34,000  Level Albuquerque Center
Sat 11:29:36 AM 34.9294 -110.2089 265° West 409 471 34,000  Level Albuquerque Center
Sat 11:30:38 AM 34.9167 -110.3581 264° West 401 461 34,000  Level Albuquerque Center
Sat 11:31:40 AM 34.9028 -110.4858 262° West 400 460 34,000  Level Albuquerque Center
Sat 11:32:42 AM 34.8878 -110.6361 263° West 398 458 34,000  Level Albuquerque Center
Sat 11:33:44 AM 34.8736 -110.7592 262° West 402 463 34,000  Level Albuquerque Center
Sat 11:34:45 AM 34.8553 -110.8928 261° West 407 468 34,000  Level Albuquerque Center
Sat 11:35:47 AM 34.8378 -111.0261 261° West 403 464 34,000  Level Albuquerque Center
Sat 11:36:49 AM 34.8217 -111.1644 262° West 414 476 34,000  Level Albuquerque Center
Sat 11:37:51 AM 34.7992 -111.3247 260° West 405 466 34,000  Level Albuquerque Center
Sat 11:38:53 AM 34.7808 -111.4589 261° West 404 465 34,000  Level Albuquerque Center
Sat 11:39:54 AM 34.7622 -111.5939 261° West 406 467 34,000  Level Albuquerque Center
Sat 11:40:56 AM 34.7444 -111.7264 261° West 402 463 34,000  Level Albuquerque Center
Sat 11:41:58 AM 34.7261 -111.8600 261° West 402 463 34,000  Level Albuquerque Center
Sat 11:43:00 AM 34.7025 -112.0203 260° West 404 465 34,000  Level Albuquerque Center
Sat 11:44:01 AM 34.6833 -112.1536 260° West 404 465 34,000  Level Albuquerque Center
Sat 11:45:03 AM 34.6647 -112.2864 260° West 403 464 34,000  Level Albuquerque Center
Sat 11:46:05 AM 34.6467 -112.4200 261° West 403 464 34,000  Level Albuquerque Center
Sat 11:47:06 AM 34.6275 -112.5542 260° West 403 464 34,000  Level Albuquerque Center
Sat 11:48:08 AM 34.6075 -112.6869 260° West 402 463 34,000  Level Albuquerque Center
Sat 11:49:10 AM 34.5878 -112.8200 260° West 401 461 34,000  Level Albuquerque Center
Sat 11:50:12 AM 34.5642 -112.9808 260° West 403 464 34,000  Level Albuquerque Center
Sat 11:51:13 AM 34.5436 -113.1144 259° West 404 465 34,000  Level Albuquerque Center
Sat 11:52:15 AM 34.5233 -113.2478 260° West 403 464 34,000  Level Albuquerque Center
Sat 11:53:17 AM 34.5028 -113.3811 259° West 403 464 34,000  Level Albuquerque Center
Sat 11:54:18 AM 34.4822 -113.5150 259° West 404 465 34,000  Level Albuquerque Center
Sat 11:55:20 AM 34.4594 -113.6639 260° West 405 466 34,000  Level Albuquerque Center
Sat 11:56:21 AM 34.4381 -113.7983 259° West 405 466 34,000  Level Albuquerque Center
Sat 11:57:23 AM 34.4169 -113.9308 259° West 403 464 34,000  Level Albuquerque Center
Sat 11:58:25 AM 34.3964 -114.0653 260° West 404 465 34,000  Level Albuquerque Center
Sat 11:59:27 AM 34.3739 -114.1983 258° West 404 465 34,000  Level Albuquerque Center
Sat 12:00:29 PM 34.3539 -114.3314 260° West 402 463 34,000  Level Albuquerque Center
Sat 12:00:46 PM 34.3439 -114.3944 259° West 404 465 34,000  Level Los Angeles Center
Sat 12:01:48 PM 34.3225 -114.5272 259° West 405 466 34,000  Level Los Angeles Center
Sat 12:02:50 PM 34.3003 -114.6597 259° West 403 464 34,000  Level Los Angeles Center
Sat 12:03:51 PM 34.2783 -114.7919 259° West 402 463 34,000  Level Los Angeles Center
Sat 12:04:53 PM 34.2567 -114.9256 259° West 405 466 34,000 -48 Level Los Angeles Center
Sat 12:05:55 PM 34.2347 -115.0592 259° West 408 470 33,900 -485 Descending Los Angeles Center
Sat 12:07:09 PM 34.2117 -115.1917 258° West 405 466 32,900 -1,059 Descending Los Angeles Center
Sat 12:08:11 PM 34.1792 -115.3758 258° West 403 464 31,500 -1,113 Descending Los Angeles Center
Sat 12:09:13 PM 34.1578 -115.5089 259° West 405 466 30,600 -774 Descending Los Angeles Center
Sat 12:10:15 PM 34.1342 -115.6431 258° West 408 470 29,900 -290 Descending Los Angeles Center
Sat 12:11:17 PM 34.1111 -115.7761 258° West 407 468 30,000 48 Climbing Los Angeles Center
Sat 12:12:19 PM 34.0925 -115.9069 260° West 400 460 30,000  Level Los Angeles Center
Sat 12:13:21 PM 34.0739 -116.0375 260° West 397 457 30,000 -581 Level Los Angeles Center
Sat 12:14:23 PM 34.0506 -116.1928 260° West 395 455 28,800 -1,024 Descending Los Angeles Center
Sat 12:15:24 PM 34.0358 -116.2947 260° West 389 448 27,900 -1,024 Descending Los Angeles Center
Sat 12:16:26 PM 34.0133 -116.4481 260° West 388 447 26,700 -1,016 Descending Los Angeles Center
Sat 12:17:28 PM 33.9992 -116.5753 262° West 387 445 25,800 -919 Descending Los Angeles Center
Sat 12:18:30 PM 33.9881 -116.7017 264° West 384 442 24,800 -1,887 Descending Los Angeles Center
Sat 12:19:32 PM 33.9753 -116.8536 264° West 382 440 21,900 -2,516 Descending Los Angeles Center
Sat 12:20:34 PM 33.9658 -116.9736 265° West 365 420 19,600 -2,268 Descending Los Angeles Center
Sat 12:21:39 PM 33.9500 -117.1000 261° West 344 396 17,100 -1,632 Descending Southern California TRACON
Sat 12:22:39 PM 33.9500 -117.2167 270° West 309 356 16,200 -550 Descending Southern California TRACON
Sat 12:23:39 PM 33.9333 -117.3167 259° West 302 348 16,000 -100 Descending Southern California TRACON
Sat 12:24:39 PM 33.9333 -117.4167 270° West 311 358 16,000 -400 Level Southern California TRACON
Sat 12:25:39 PM 33.9167 -117.5167 259° West 323 372 15,200 -1,339 Descending Southern California TRACON
Sat 12:26:40 PM 33.9333 -117.6167 281° West 325 374 13,300 -1,091 Descending Southern California TRACON
Sat 12:27:40 PM 33.9500 -117.7167 281° West 308 354 13,000 -150 Descending Southern California TRACON
Sat 12:28:40 PM 33.9667 -117.8167 281° West 295 339 13,000  Level Southern California TRACON
Sat 12:29:46 PM 33.9667 -117.9167 270° West 289 333 13,000 -381 Level Southern California TRACON
Sat 12:30:46 PM 33.9833 -118.0167 281° West 299 344 12,200 -900 Descending Southern California TRACON
Sat 12:31:46 PM 33.9667 -118.1167 259° West 301 346 11,200 -1,240 Descending Southern California TRACON
Sat 12:32:47 PM 33.9500 -118.2167 259° West 286 329 9,700 -1,388 Descending Southern California TRACON
Sat 12:33:47 PM 33.9667 -118.3167 281° West 275 316 8,400 -810 Descending Southern California TRACON
Sat 12:34:53 PM 34.0000 -118.4167 292° West 317 365 8,000 -200 Descending Southern California TRACON
Sat 12:35:47 PM 34.0167 -118.5000 284° West 285 328 8,000  Level Southern California TRACON
Sat 12:36:05 PM 34.0161 -118.5153 267° West 293 337 8,000 -457 Level Los Angeles Center
Sat 12:37:19 PM 34.0061 -118.6189 263° West 291 335 7,300 -750 Descending Los Angeles Center
Sat 12:38:21 PM 33.9964 -118.7283 264° West 268 308 6,300 -968 Descending Los Angeles Center
Sat 12:39:23 PM 33.9756 -118.7975 250° West 231 266 5,300 -968 Descending Los Angeles Center
Sat 12:40:25 PM 33.9375 -118.7586 140° Southeast 204 235 4,300 -774 Descending Los Angeles Center
Sat 12:41:27 PM 33.9236 -118.6892 104° East 212 244 3,700 -576 Descending Los Angeles Center
Sat 12:42:30 PM 33.9308 -118.6114 84° East 217 250 3,100 -816 Descending Los Angeles Center
Sat 12:43:32 PM 33.9378 -118.5450 83° East 201 231 2,000 -1,016 Descending Los Angeles Center
Sat 12:44:34 PM 33.9444 -118.4814 83° East 176 203 1,000 -871 Descending Los Angeles Center
Sat 12:45:36 PM 33.9483 -118.4358 84° East 140 161 200 -774 Descending Los Angeles Center

Login

Don't have an account? Register now (free) for customized features, flight alerts, and more!